This is the latest recevied weather packets stored in our database for station/object KA5ZCI. If no packets are shown the sender has not sent any weather packets the latest 10 day(s).
| Time | Temp. | Humidity | Pressure | Rain* | Wind** | Luminosity | Snow |
|---|---|---|---|---|---|---|---|
| 1777419904 | 27.22° C | 66% | 1014.3 hPa | 0 mm | - | 0 W/m² | - |
| 1777419304 | 27.22° C | 65% | 1014.2 hPa | 0 mm | - | 0 W/m² | - |
| 1777415103 | 29.44° C | 57% | 1014.2 hPa | 0 mm | - | 0 W/m² | - |
| 1777413903 | 30° C | 58% | 1014.3 hPa | 0 mm | - | 0 W/m² | - |
| 1777410003 | 30.56° C | 56% | 1014.7 hPa | 0 mm | - | 0 W/m² | - |
| 1777409703 | 30.56° C | 56% | 1014.9 hPa | 0 mm | - | 0 W/m² | - |
| 1777408203 | 30° C | 61% | 1015.1 hPa | 0 mm | - | 0 W/m² | - |
| 1777407304 | 30° C | 62% | 1015.2 hPa | 0 mm | - | 0 W/m² | - |
| 1777407004 | 30° C | 61% | 1015.4 hPa | 0 mm | - | 0 W/m² | - |
| 1777406704 | 29.44° C | 64% | 1015.6 hPa | 0 mm | - | 0 W/m² | - |
| 1777405803 | 29.44° C | 64% | 1016.2 hPa | 0 mm | - | 0 W/m² | - |
| 1777405504 | 29.44° C | 62% | 1016.3 hPa | 0 mm | - | 0 W/m² | - |
| 1777405204 | 30° C | 62% | 1016.3 hPa | 0 mm | - | 0 W/m² | - |
| 1777403704 | 29.44° C | 63% | 1016.2 hPa | 0 mm | - | 0 W/m² | - |
| 1777403404 | 29.44° C | 62% | 1016.1 hPa | 0 mm | - | 0 W/m² | - |
| 1777400104 | 30.56° C | 57% | 1017.3 hPa | 0 mm | - | 0 W/m² | - |
| 1777399804 | 30° C | 59% | 1017.4 hPa | 0 mm | - | 0 W/m² | - |
| 1777398303 | 30.56° C | 57% | 1017.6 hPa | 0 mm | - | 0 W/m² | - |
| 1777397703 | 30° C | 58% | 1017.7 hPa | 0 mm | - | 0 W/m² | - |
| 1777396504 | 30° C | 59% | 1017.6 hPa | 0 mm | - | 0 W/m² | - |
| 1777395904 | 30° C | 58% | 1017.8 hPa | 0 mm | - | 0 W/m² | - |
| 1777394404 | 29.44° C | 61% | 1017.9 hPa | 0 mm | - | 0 W/m² | - |
| 1777392904 | 29.44° C | 62% | 1017.9 hPa | 0 mm | - | 0 W/m² | - |
| 1777391404 | 28.33° C | 64% | 1018.1 hPa | 0 mm | - | 0 W/m² | - |
| 1777386604 | 27.22° C | 72% | 1017.5 hPa | 0 mm | - | 0 W/m² | - |
* Rain latest hour (hover to see other rain measurements)
** Current wind speed in m/s (hover to see current wind gust speed)